sensor_id;sensor_type;location;lat;lon;timestamp;temperature;humidity
70368;DHT22;57789;53.868;10.728;2024-02-21T00:02:22;8.60;99.90
70368;DHT22;57789;53.868;10.728;2024-02-21T00:04:47;8.60;99.90
70368;DHT22;57789;53.868;10.728;2024-02-21T00:07:13;8.60;99.90
70368;DHT22;57789;53.868;10.728;2024-02-21T00:09:39;8.60;99.90
70368;DHT22;57789;53.868;10.728;2024-02-21T00:12:05;8.60;99.90
70368;DHT22;57789;53.868;10.728;2024-02-21T00:14:31;8.60;99.90
70368;DHT22;57789;53.868;10.728;2024-02-21T00:16:56;8.60;99.90
70368;DHT22;57789;53.868;10.728;2024-02-21T00:19:22;8.60;99.90
70368;DHT22;57789;53.868;10.728;2024-02-21T00:21:48;8.60;99.90
70368;DHT22;57789;53.868;10.728;2024-02-21T00:24:14;8.70;99.90
70368;DHT22;57789;53.868;10.728;2024-02-21T00:26:39;8.70;99.90
70368;DHT22;57789;53.868;10.728;2024-02-21T00:29:05;8.60;99.90
70368;DHT22;57789;53.868;10.728;2024-02-21T00:31:31;8.60;99.90
70368;DHT22;57789;53.868;10.728;2024-02-21T00:33:57;8.60;99.90
70368;DHT22;57789;53.868;10.728;2024-02-21T00:36:23;8.60;99.90
70368;DHT22;57789;53.868;10.728;2024-02-21T00:38:49;8.70;99.90
70368;DHT22;57789;53.868;10.728;2024-02-21T00:41:15;8.70;99.90
70368;DHT22;57789;53.868;10.728;2024-02-21T00:43:41;8.70;99.90
70368;DHT22;57789;53.868;10.728;2024-02-21T00:46:07;8.80;99.90
70368;DHT22;57789;53.868;10.728;2024-02-21T00:48:33;8.70;99.90
70368;DHT22;57789;53.868;10.728;2024-02-21T00:50:59;8.80;99.90
70368;DHT22;57789;53.868;10.728;2024-02-21T00:53:25;8.80;99.90
70368;DHT22;57789;53.868;10.728;2024-02-21T00:55:51;8.80;99.90
70368;DHT22;57789;53.868;10.728;2024-02-21T00:58:17;8.90;99.90
70368;DHT22;57789;53.868;10.728;2024-02-21T01:00:42;8.80;99.90
70368;DHT22;57789;53.868;10.728;2024-02-21T01:03:08;8.90;99.90
70368;DHT22;57789;53.868;10.728;2024-02-21T01:05:34;8.90;99.90
70368;DHT22;57789;53.868;10.728;2024-02-21T01:08:00;8.80;99.90
70368;DHT22;57789;53.868;10.728;2024-02-21T01:10:25;8.80;99.90
70368;DHT22;57789;53.868;10.728;2024-02-21T01:12:51;8.90;99.90
70368;DHT22;57789;53.868;10.728;2024-02-21T01:15:17;8.90;99.90
70368;DHT22;57789;53.868;10.728;2024-02-21T01:17:43;8.90;99.90
70368;DHT22;57789;53.868;10.728;2024-02-21T01:20:09;9.00;99.90
70368;DHT22;57789;53.868;10.728;2024-02-21T01:22:35;9.00;99.90
70368;DHT22;57789;53.868;10.728;2024-02-21T01:25:00;9.00;99.90
70368;DHT22;57789;53.868;10.728;2024-02-21T01:27:26;8.90;99.90
70368;DHT22;57789;53.868;10.728;2024-02-21T01:29:52;8.90;99.90
70368;DHT22;57789;53.868;10.728;2024-02-21T01:32:18;8.90;99.90
70368;DHT22;57789;53.868;10.728;2024-02-21T01:34:44;8.90;99.90
70368;DHT22;57789;53.868;10.728;2024-02-21T01:37:09;8.90;99.90
70368;DHT22;57789;53.868;10.728;2024-02-21T01:39:35;8.80;99.90
70368;DHT22;57789;53.868;10.728;2024-02-21T01:42:01;8.70;99.90
70368;DHT22;57789;53.868;10.728;2024-02-21T01:44:27;8.70;99.90
70368;DHT22;57789;53.868;10.728;2024-02-21T01:46:52;8.70;99.90
70368;DHT22;57789;53.868;10.728;2024-02-21T01:49:19;8.60;99.90
70368;DHT22;57789;53.868;10.728;2024-02-21T01:51:46;8.60;99.90
70368;DHT22;57789;53.868;10.728;2024-02-21T01:54:14;8.50;99.90
70368;DHT22;57789;53.868;10.728;2024-02-21T01:56:44;8.50;99.90
70368;DHT22;57789;53.868;10.728;2024-02-21T01:59:11;8.50;99.90
70368;DHT22;57789;53.868;10.728;2024-02-21T02:01:39;8.50;99.90
70368;DHT22;57789;53.868;10.728;2024-02-21T02:04:06;8.50;99.90
70368;DHT22;57789;53.868;10.728;2024-02-21T02:06:31;8.50;99.90
70368;DHT22;57789;53.868;10.728;2024-02-21T02:08:57;8.50;99.90
70368;DHT22;57789;53.868;10.728;2024-02-21T02:11:23;8.50;99.90
70368;DHT22;57789;53.868;10.728;2024-02-21T02:13:49;8.40;99.90
70368;DHT22;57789;53.868;10.728;2024-02-21T02:16:15;8.40;99.90
70368;DHT22;57789;53.868;10.728;2024-02-21T02:18:40;8.40;99.90
70368;DHT22;57789;53.868;10.728;2024-02-21T02:21:23;8.40;99.90
70368;DHT22;57789;53.868;10.728;2024-02-21T02:23:52;8.40;99.90
70368;DHT22;57789;53.868;10.728;2024-02-21T02:26:18;8.40;99.90
70368;DHT22;57789;53.868;10.728;2024-02-21T02:28:43;8.40;99.90
70368;DHT22;57789;53.868;10.728;2024-02-21T02:31:09;8.40;99.90
70368;DHT22;57789;53.868;10.728;2024-02-21T02:33:35;8.40;99.90
70368;DHT22;57789;53.868;10.728;2024-02-21T02:36:01;8.40;99.90
70368;DHT22;57789;53.868;10.728;2024-02-21T02:38:26;8.40;99.90
70368;DHT22;57789;53.868;10.728;2024-02-21T02:40:52;8.40;99.90
70368;DHT22;57789;53.868;10.728;2024-02-21T02:43:18;8.40;99.90
70368;DHT22;57789;53.868;10.728;2024-02-21T02:45:43;8.40;99.90
70368;DHT22;57789;53.868;10.728;2024-02-21T02:48:09;8.40;99.90
70368;DHT22;57789;53.868;10.728;2024-02-21T02:50:35;8.40;99.90
70368;DHT22;57789;53.868;10.728;2024-02-21T02:53:00;8.40;99.90
70368;DHT22;57789;53.868;10.728;2024-02-21T02:55:26;8.40;99.90
70368;DHT22;57789;53.868;10.728;2024-02-21T02:57:52;8.40;99.90
70368;DHT22;57789;53.868;10.728;2024-02-21T03:00:18;8.50;99.90
70368;DHT22;57789;53.868;10.728;2024-02-21T03:02:46;8.50;99.90
70368;DHT22;57789;53.868;10.728;2024-02-21T03:05:16;8.50;99.90
70368;DHT22;57789;53.868;10.728;2024-02-21T03:07:42;8.60;99.90
70368;DHT22;57789;53.868;10.728;2024-02-21T03:10:09;8.60;99.90
70368;DHT22;57789;53.868;10.728;2024-02-21T03:12:35;8.60;99.90
70368;DHT22;57789;53.868;10.728;2024-02-21T03:15:01;8.60;99.90
70368;DHT22;57789;53.868;10.728;2024-02-21T03:17:27;8.70;99.90
70368;DHT22;57789;53.868;10.728;2024-02-21T03:19:53;8.70;99.90
70368;DHT22;57789;53.868;10.728;2024-02-21T03:22:21;8.70;99.90
70368;DHT22;57789;53.868;10.728;2024-02-21T03:24:46;8.70;99.90
70368;DHT22;57789;53.868;10.728;2024-02-21T03:27:12;8.70;99.90
70368;DHT22;57789;53.868;10.728;2024-02-21T03:29:38;8.80;99.90
70368;DHT22;57789;53.868;10.728;2024-02-21T03:32:04;8.80;99.90
70368;DHT22;57789;53.868;10.728;2024-02-21T03:34:30;8.80;99.90
70368;DHT22;57789;53.868;10.728;2024-02-21T03:36:56;8.80;99.90
70368;DHT22;57789;53.868;10.728;2024-02-21T03:39:21;8.80;99.90
70368;DHT22;57789;53.868;10.728;2024-02-21T03:41:47;8.80;99.90
70368;DHT22;57789;53.868;10.728;2024-02-21T03:44:13;8.90;99.90
70368;DHT22;57789;53.868;10.728;2024-02-21T03:46:39;8.90;99.90
70368;DHT22;57789;53.868;10.728;2024-02-21T03:49:05;8.80;99.90
70368;DHT22;57789;53.868;10.728;2024-02-21T03:51:31;8.80;99.90
70368;DHT22;57789;53.868;10.728;2024-02-21T03:53:56;8.80;99.90
70368;DHT22;57789;53.868;10.728;2024-02-21T03:56:22;8.80;99.90
70368;DHT22;57789;53.868;10.728;2024-02-21T03:58:48;8.80;99.90
70368;DHT22;57789;53.868;10.728;2024-02-21T04:01:15;8.80;99.90
70368;DHT22;57789;53.868;10.728;2024-02-21T04:03:43;8.70;99.90
70368;DHT22;57789;53.868;10.728;2024-02-21T04:06:09;8.80;99.90
70368;DHT22;57789;53.868;10.728;2024-02-21T04:08:36;8.70;99.90
70368;DHT22;57789;53.868;10.728;2024-02-21T04:11:02;8.70;99.90
70368;DHT22;57789;53.868;10.728;2024-02-21T04:13:27;8.70;99.90
70368;DHT22;57789;53.868;10.728;2024-02-21T04:15:53;8.70;99.90
70368;DHT22;57789;53.868;10.728;2024-02-21T04:18:19;8.70;99.90
70368;DHT22;57789;53.868;10.728;2024-02-21T04:20:45;8.70;99.90
70368;DHT22;57789;53.868;10.728;2024-02-21T04:23:11;8.70;99.90
70368;DHT22;57789;53.868;10.728;2024-02-21T04:25:36;8.70;99.90
70368;DHT22;57789;53.868;10.728;2024-02-21T04:28:02;8.70;99.90
70368;DHT22;57789;53.868;10.728;2024-02-21T04:30:28;8.70;99.90
70368;DHT22;57789;53.868;10.728;2024-02-21T04:32:54;8.80;99.90
70368;DHT22;57789;53.868;10.728;2024-02-21T04:35:20;8.80;99.90
70368;DHT22;57789;53.868;10.728;2024-02-21T04:37:46;8.80;99.90
70368;DHT22;57789;53.868;10.728;2024-02-21T04:40:12;8.80;99.90
70368;DHT22;57789;53.868;10.728;2024-02-21T04:42:38;8.90;99.90
70368;DHT22;57789;53.868;10.728;2024-02-21T04:45:05;8.90;99.90
70368;DHT22;57789;53.868;10.728;2024-02-21T04:47:30;8.90;99.90
70368;DHT22;57789;53.868;10.728;2024-02-21T04:49:56;8.90;99.90
70368;DHT22;57789;53.868;10.728;2024-02-21T04:52:22;8.80;99.90
70368;DHT22;57789;53.868;10.728;2024-02-21T04:54:47;8.80;99.90
70368;DHT22;57789;53.868;10.728;2024-02-21T04:57:14;8.80;99.90
70368;DHT22;57789;53.868;10.728;2024-02-21T04:59:44;8.70;99.90
70368;DHT22;57789;53.868;10.728;2024-02-21T05:02:11;8.70;99.90
70368;DHT22;57789;53.868;10.728;2024-02-21T05:04:36;8.70;99.90
70368;DHT22;57789;53.868;10.728;2024-02-21T05:07:04;8.70;99.90
70368;DHT22;57789;53.868;10.728;2024-02-21T05:09:30;8.60;99.90
70368;DHT22;57789;53.868;10.728;2024-02-21T05:11:55;8.70;99.90
70368;DHT22;57789;53.868;10.728;2024-02-21T05:14:21;8.70;99.90
70368;DHT22;57789;53.868;10.728;2024-02-21T05:16:47;8.60;99.90
70368;DHT22;57789;53.868;10.728;2024-02-21T05:19:13;8.60;99.90
70368;DHT22;57789;53.868;10.728;2024-02-21T05:21:38;8.60;99.90
70368;DHT22;57789;53.868;10.728;2024-02-21T05:24:04;8.60;99.90
70368;DHT22;57789;53.868;10.728;2024-02-21T05:26:30;8.70;99.90
70368;DHT22;57789;53.868;10.728;2024-02-21T05:28:56;8.70;99.90
70368;DHT22;57789;53.868;10.728;2024-02-21T05:31:22;8.60;99.90
70368;DHT22;57789;53.868;10.728;2024-02-21T05:33:47;8.60;99.90
70368;DHT22;57789;53.868;10.728;2024-02-21T05:36:13;8.60;99.90
70368;DHT22;57789;53.868;10.728;2024-02-21T05:38:40;8.60;99.90
70368;DHT22;57789;53.868;10.728;2024-02-21T05:41:05;8.60;99.90
70368;DHT22;57789;53.868;10.728;2024-02-21T05:43:31;8.60;99.90
70368;DHT22;57789;53.868;10.728;2024-02-21T05:45:57;8.60;99.90
70368;DHT22;57789;53.868;10.728;2024-02-21T05:48:23;8.70;99.90
70368;DHT22;57789;53.868;10.728;2024-02-21T05:50:50;8.60;99.90
70368;DHT22;57789;53.868;10.728;2024-02-21T05:53:16;8.70;99.90
70368;DHT22;57789;53.868;10.728;2024-02-21T05:55:42;8.60;99.90
70368;DHT22;57789;53.868;10.728;2024-02-21T05:58:07;8.60;99.90
70368;DHT22;57789;53.868;10.728;2024-02-21T06:00:37;8.60;99.90
70368;DHT22;57789;53.868;10.728;2024-02-21T06:03:03;8.50;99.90
70368;DHT22;57789;53.868;10.728;2024-02-21T06:05:29;8.40;99.90
70368;DHT22;57789;53.868;10.728;2024-02-21T06:07:54;8.30;99.90
70368;DHT22;57789;53.868;10.728;2024-02-21T06:10:20;8.20;99.90
70368;DHT22;57789;53.868;10.728;2024-02-21T06:12:46;8.10;99.90
70368;DHT22;57789;53.868;10.728;2024-02-21T06:15:12;8.10;99.90
70368;DHT22;57789;53.868;10.728;2024-02-21T06:17:37;8.00;99.90
70368;DHT22;57789;53.868;10.728;2024-02-21T06:20:04;8.00;99.90
70368;DHT22;57789;53.868;10.728;2024-02-21T06:22:30;8.10;99.90
70368;DHT22;57789;53.868;10.728;2024-02-21T06:24:56;8.10;99.90
70368;DHT22;57789;53.868;10.728;2024-02-21T06:27:22;8.10;99.90
70368;DHT22;57789;53.868;10.728;2024-02-21T06:29:49;8.10;99.90
70368;DHT22;57789;53.868;10.728;2024-02-21T06:32:15;8.10;99.90
70368;DHT22;57789;53.868;10.728;2024-02-21T06:34:41;8.10;99.90
70368;DHT22;57789;53.868;10.728;2024-02-21T06:37:07;8.10;99.90
70368;DHT22;57789;53.868;10.728;2024-02-21T06:39:32;8.10;99.90
70368;DHT22;57789;53.868;10.728;2024-02-21T06:41:58;8.10;99.90
70368;DHT22;57789;53.868;10.728;2024-02-21T06:44:24;8.10;99.90
70368;DHT22;57789;53.868;10.728;2024-02-21T06:46:50;8.10;99.90
70368;DHT22;57789;53.868;10.728;2024-02-21T06:49:16;8.10;99.90
70368;DHT22;57789;53.868;10.728;2024-02-21T06:51:42;8.10;99.90
70368;DHT22;57789;53.868;10.728;2024-02-21T06:54:09;8.10;99.90
70368;DHT22;57789;53.868;10.728;2024-02-21T06:56:39;8.20;99.90
70368;DHT22;57789;53.868;10.728;2024-02-21T06:59:05;8.10;99.90
70368;DHT22;57789;53.868;10.728;2024-02-21T07:01:31;8.10;99.90
70368;DHT22;57789;53.868;10.728;2024-02-21T07:03:57;8.10;99.90
70368;DHT22;57789;53.868;10.728;2024-02-21T07:06:23;8.10;99.90
70368;DHT22;57789;53.868;10.728;2024-02-21T07:08:49;8.10;99.90
70368;DHT22;57789;53.868;10.728;2024-02-21T07:11:15;8.10;99.90
70368;DHT22;57789;53.868;10.728;2024-02-21T07:13:41;8.10;99.90
70368;DHT22;57789;53.868;10.728;2024-02-21T07:16:07;8.10;99.90
70368;DHT22;57789;53.868;10.728;2024-02-21T07:18:33;8.10;99.90
70368;DHT22;57789;53.868;10.728;2024-02-21T07:20:59;8.10;99.90
70368;DHT22;57789;53.868;10.728;2024-02-21T07:23:25;8.10;99.90
70368;DHT22;57789;53.868;10.728;2024-02-21T07:25:51;8.10;99.90
70368;DHT22;57789;53.868;10.728;2024-02-21T07:28:17;8.20;99.90
70368;DHT22;57789;53.868;10.728;2024-02-21T07:30:43;8.20;99.90
70368;DHT22;57789;53.868;10.728;2024-02-21T07:33:09;8.20;99.90
70368;DHT22;57789;53.868;10.728;2024-02-21T07:35:35;8.20;99.90
70368;DHT22;57789;53.868;10.728;2024-02-21T07:38:06;8.20;99.90
70368;DHT22;57789;53.868;10.728;2024-02-21T07:40:32;8.20;99.90
70368;DHT22;57789;53.868;10.728;2024-02-21T07:42:59;8.30;99.90
70368;DHT22;57789;53.868;10.728;2024-02-21T07:45:24;8.30;99.90
70368;DHT22;57789;53.868;10.728;2024-02-21T07:47:50;8.30;99.90
70368;DHT22;57789;53.868;10.728;2024-02-21T07:50:18;8.30;99.90
70368;DHT22;57789;53.868;10.728;2024-02-21T07:52:44;8.30;99.90
70368;DHT22;57789;53.868;10.728;2024-02-21T07:55:10;8.30;99.90
70368;DHT22;57789;53.868;10.728;2024-02-21T07:57:36;8.30;99.90
70368;DHT22;57789;53.868;10.728;2024-02-21T08:00:02;8.40;99.90
70368;DHT22;57789;53.868;10.728;2024-02-21T08:02:31;8.40;99.90
70368;DHT22;57789;53.868;10.728;2024-02-21T08:04:58;8.50;99.90
70368;DHT22;57789;53.868;10.728;2024-02-21T08:07:23;8.50;99.90
70368;DHT22;57789;53.868;10.728;2024-02-21T08:09:49;8.50;99.90
70368;DHT22;57789;53.868;10.728;2024-02-21T08:12:15;8.60;99.90
70368;DHT22;57789;53.868;10.728;2024-02-21T08:14:41;8.70;99.90
70368;DHT22;57789;53.868;10.728;2024-02-21T08:17:06;8.70;99.90
70368;DHT22;57789;53.868;10.728;2024-02-21T08:19:33;8.70;99.90
70368;DHT22;57789;53.868;10.728;2024-02-21T08:22:00;8.80;99.90
70368;DHT22;57789;53.868;10.728;2024-02-21T08:24:27;8.80;99.90
70368;DHT22;57789;53.868;10.728;2024-02-21T08:26:52;8.80;99.90
70368;DHT22;57789;53.868;10.728;2024-02-21T08:29:19;8.80;99.90
70368;DHT22;57789;53.868;10.728;2024-02-21T08:31:44;8.80;99.90
70368;DHT22;57789;53.868;10.728;2024-02-21T08:34:10;8.70;99.90
70368;DHT22;57789;53.868;10.728;2024-02-21T08:36:36;8.70;99.90
70368;DHT22;57789;53.868;10.728;2024-02-21T08:39:03;8.60;99.90
70368;DHT22;57789;53.868;10.728;2024-02-21T08:41:31;8.60;99.90
70368;DHT22;57789;53.868;10.728;2024-02-21T08:43:57;8.70;99.90
70368;DHT22;57789;53.868;10.728;2024-02-21T08:46:24;8.70;99.90
70368;DHT22;57789;53.868;10.728;2024-02-21T08:48:54;8.70;99.90
70368;DHT22;57789;53.868;10.728;2024-02-21T08:51:20;8.70;99.90
70368;DHT22;57789;53.868;10.728;2024-02-21T08:53:47;8.80;99.90
70368;DHT22;57789;53.868;10.728;2024-02-21T08:56:13;8.80;99.90
70368;DHT22;57789;53.868;10.728;2024-02-21T08:58:40;8.90;99.90
70368;DHT22;57789;53.868;10.728;2024-02-21T09:01:07;9.00;99.90
70368;DHT22;57789;53.868;10.728;2024-02-21T09:03:39;9.10;99.90
70368;DHT22;57789;53.868;10.728;2024-02-21T09:06:09;9.10;99.90
70368;DHT22;57789;53.868;10.728;2024-02-21T09:08:35;9.20;99.90
70368;DHT22;57789;53.868;10.728;2024-02-21T09:11:01;9.30;99.90
70368;DHT22;57789;53.868;10.728;2024-02-21T09:13:27;9.40;99.90
70368;DHT22;57789;53.868;10.728;2024-02-21T09:15:53;9.40;99.90
70368;DHT22;57789;53.868;10.728;2024-02-21T09:18:19;9.40;99.90
70368;DHT22;57789;53.868;10.728;2024-02-21T09:20:45;9.40;99.90
70368;DHT22;57789;53.868;10.728;2024-02-21T09:23:11;9.50;99.90
70368;DHT22;57789;53.868;10.728;2024-02-21T09:25:37;9.40;99.90
70368;DHT22;57789;53.868;10.728;2024-02-21T09:28:03;9.40;99.90
70368;DHT22;57789;53.868;10.728;2024-02-21T09:30:31;9.40;99.90
70368;DHT22;57789;53.868;10.728;2024-02-21T09:32:57;9.40;99.90
70368;DHT22;57789;53.868;10.728;2024-02-21T09:35:25;9.50;99.90
70368;DHT22;57789;53.868;10.728;2024-02-21T09:37:53;9.60;99.90
70368;DHT22;57789;53.868;10.728;2024-02-21T09:40:19;9.70;99.90
70368;DHT22;57789;53.868;10.728;2024-02-21T09:42:46;9.90;99.90
70368;DHT22;57789;53.868;10.728;2024-02-21T09:50:23;10.50;99.90
70368;DHT22;57789;53.868;10.728;2024-02-21T09:52:51;10.30;99.90
70368;DHT22;57789;53.868;10.728;2024-02-21T09:55:18;10.30;99.90
70368;DHT22;57789;53.868;10.728;2024-02-21T09:57:44;10.40;99.90
70368;DHT22;57789;53.868;10.728;2024-02-21T10:00:11;10.50;99.90
70368;DHT22;57789;53.868;10.728;2024-02-21T10:02:39;10.70;99.90
70368;DHT22;57789;53.868;10.728;2024-02-21T10:05:05;10.70;99.90
70368;DHT22;57789;53.868;10.728;2024-02-21T10:07:33;10.70;99.90
70368;DHT22;57789;53.868;10.728;2024-02-21T10:10:06;10.40;99.90
70368;DHT22;57789;53.868;10.728;2024-02-21T10:12:32;10.20;99.90
70368;DHT22;57789;53.868;10.728;2024-02-21T10:15:05;10.30;99.90
70368;DHT22;57789;53.868;10.728;2024-02-21T10:17:32;10.50;99.90
70368;DHT22;57789;53.868;10.728;2024-02-21T10:20:10;10.60;99.90
70368;DHT22;57789;53.868;10.728;2024-02-21T10:22:37;10.60;99.90
70368;DHT22;57789;53.868;10.728;2024-02-21T10:25:12;10.60;99.90
70368;DHT22;57789;53.868;10.728;2024-02-21T10:27:39;10.60;99.90
70368;DHT22;57789;53.868;10.728;2024-02-21T10:30:13;10.90;99.90
70368;DHT22;57789;53.868;10.728;2024-02-21T10:32:51;11.10;99.90
70368;DHT22;57789;53.868;10.728;2024-02-21T10:35:28;10.80;99.90
70368;DHT22;57789;53.868;10.728;2024-02-21T10:37:59;10.80;99.90
70368;DHT22;57789;53.868;10.728;2024-02-21T10:40:29;10.80;99.90
70368;DHT22;57789;53.868;10.728;2024-02-21T10:43:00;10.70;99.90
70368;DHT22;57789;53.868;10.728;2024-02-21T10:45:36;10.90;99.90
70368;DHT22;57789;53.868;10.728;2024-02-21T10:48:15;11.00;99.90
70368;DHT22;57789;53.868;10.728;2024-02-21T10:56:38;10.90;99.90
70368;DHT22;57789;53.868;10.728;2024-02-21T10:59:07;10.80;99.90
70368;DHT22;57789;53.868;10.728;2024-02-21T11:01:33;10.70;99.90
70368;DHT22;57789;53.868;10.728;2024-02-21T11:04:08;10.60;99.90
70368;DHT22;57789;53.868;10.728;2024-02-21T11:06:38;10.50;99.90
70368;DHT22;57789;53.868;10.728;2024-02-21T11:09:09;10.60;99.90
70368;DHT22;57789;53.868;10.728;2024-02-21T11:11:35;10.50;99.90
70368;DHT22;57789;53.868;10.728;2024-02-21T11:14:09;10.50;99.90
70368;DHT22;57789;53.868;10.728;2024-02-21T11:16:40;10.60;99.90
70368;DHT22;57789;53.868;10.728;2024-02-21T11:19:18;10.60;99.90
70368;DHT22;57789;53.868;10.728;2024-02-21T11:21:44;10.50;99.90
70368;DHT22;57789;53.868;10.728;2024-02-21T11:24:10;10.40;99.90
70368;DHT22;57789;53.868;10.728;2024-02-21T11:26:37;10.50;99.90
70368;DHT22;57789;53.868;10.728;2024-02-21T11:29:04;10.50;99.90
70368;DHT22;57789;53.868;10.728;2024-02-21T11:31:40;10.40;99.90
70368;DHT22;57789;53.868;10.728;2024-02-21T11:34:10;10.40;99.90
70368;DHT22;57789;53.868;10.728;2024-02-21T11:36:46;10.40;99.90
70368;DHT22;57789;53.868;10.728;2024-02-21T11:39:11;10.30;99.90
70368;DHT22;57789;53.868;10.728;2024-02-21T11:41:37;10.20;99.90
70368;DHT22;57789;53.868;10.728;2024-02-21T11:44:03;10.20;99.90
70368;DHT22;57789;53.868;10.728;2024-02-21T11:46:33;10.20;99.90
70368;DHT22;57789;53.868;10.728;2024-02-21T11:49:04;10.30;99.90
70368;DHT22;57789;53.868;10.728;2024-02-21T11:51:30;10.30;99.90
70368;DHT22;57789;53.868;10.728;2024-02-21T11:53:56;10.20;99.90
70368;DHT22;57789;53.868;10.728;2024-02-21T11:56:23;10.20;99.90
70368;DHT22;57789;53.868;10.728;2024-02-21T11:58:49;10.20;99.90
70368;DHT22;57789;53.868;10.728;2024-02-21T12:01:15;10.20;99.90
70368;DHT22;57789;53.868;10.728;2024-02-21T12:03:42;10.30;99.90
70368;DHT22;57789;53.868;10.728;2024-02-21T12:06:15;10.30;99.90
70368;DHT22;57789;53.868;10.728;2024-02-21T12:08:45;10.30;99.90
70368;DHT22;57789;53.868;10.728;2024-02-21T12:11:21;10.30;99.90
70368;DHT22;57789;53.868;10.728;2024-02-21T12:14:08;10.10;99.90
70368;DHT22;57789;53.868;10.728;2024-02-21T12:16:35;10.10;99.90
70368;DHT22;57789;53.868;10.728;2024-02-21T12:19:04;10.00;99.90
70368;DHT22;57789;53.868;10.728;2024-02-21T12:21:33;10.00;99.90
70368;DHT22;57789;53.868;10.728;2024-02-21T12:26:38;10.00;99.90
70368;DHT22;57789;53.868;10.728;2024-02-21T12:29:04;10.00;99.90
70368;DHT22;57789;53.868;10.728;2024-02-21T12:31:30;10.10;99.90
70368;DHT22;57789;53.868;10.728;2024-02-21T12:33:56;10.10;99.90
70368;DHT22;57789;53.868;10.728;2024-02-21T12:36:21;10.10;99.90
70368;DHT22;57789;53.868;10.728;2024-02-21T12:38:47;10.20;99.90
70368;DHT22;57789;53.868;10.728;2024-02-21T12:41:15;10.20;99.90
70368;DHT22;57789;53.868;10.728;2024-02-21T12:43:41;10.20;99.90
70368;DHT22;57789;53.868;10.728;2024-02-21T12:46:08;10.10;99.90
70368;DHT22;57789;53.868;10.728;2024-02-21T12:48:34;10.10;99.90
70368;DHT22;57789;53.868;10.728;2024-02-21T12:50:59;9.90;99.90
70368;DHT22;57789;53.868;10.728;2024-02-21T12:53:25;9.80;99.90
70368;DHT22;57789;53.868;10.728;2024-02-21T12:55:51;9.60;99.90
70368;DHT22;57789;53.868;10.728;2024-02-21T12:58:17;9.60;99.90
70368;DHT22;57789;53.868;10.728;2024-02-21T13:00:43;9.60;99.90
70368;DHT22;57789;53.868;10.728;2024-02-21T13:03:10;9.60;99.90
70368;DHT22;57789;53.868;10.728;2024-02-21T13:05:38;9.60;99.90
70368;DHT22;57789;53.868;10.728;2024-02-21T13:08:08;9.50;99.90
70368;DHT22;57789;53.868;10.728;2024-02-21T13:10:34;9.60;99.90
70368;DHT22;57789;53.868;10.728;2024-02-21T13:13:01;9.50;99.90
70368;DHT22;57789;53.868;10.728;2024-02-21T13:15:28;9.40;99.90
70368;DHT22;57789;53.868;10.728;2024-02-21T13:17:57;9.50;99.90
70368;DHT22;57789;53.868;10.728;2024-02-21T13:20:26;9.40;99.90
70368;DHT22;57789;53.868;10.728;2024-02-21T13:22:52;9.40;99.90
70368;DHT22;57789;53.868;10.728;2024-02-21T13:25:18;9.30;99.90
70368;DHT22;57789;53.868;10.728;2024-02-21T13:27:49;9.30;99.90
70368;DHT22;57789;53.868;10.728;2024-02-21T13:30:15;9.30;99.90
70368;DHT22;57789;53.868;10.728;2024-02-21T13:32:42;9.30;99.90
70368;DHT22;57789;53.868;10.728;2024-02-21T13:35:08;9.20;99.90
70368;DHT22;57789;53.868;10.728;2024-02-21T13:37:34;9.20;99.90
70368;DHT22;57789;53.868;10.728;2024-02-21T13:40:01;9.20;99.90
70368;DHT22;57789;53.868;10.728;2024-02-21T13:42:27;9.10;99.90
70368;DHT22;57789;53.868;10.728;2024-02-21T13:44:53;9.10;99.90
70368;DHT22;57789;53.868;10.728;2024-02-21T13:47:19;9.10;99.90
70368;DHT22;57789;53.868;10.728;2024-02-21T13:49:47;9.20;99.90
70368;DHT22;57789;53.868;10.728;2024-02-21T13:52:13;9.20;99.90
70368;DHT22;57789;53.868;10.728;2024-02-21T13:54:39;9.30;99.90
70368;DHT22;57789;53.868;10.728;2024-02-21T13:57:05;9.40;99.90
70368;DHT22;57789;53.868;10.728;2024-02-21T13:59:31;9.50;99.90
70368;DHT22;57789;53.868;10.728;2024-02-21T14:01:59;9.50;99.90
70368;DHT22;57789;53.868;10.728;2024-02-21T14:04:25;9.50;99.90
70368;DHT22;57789;53.868;10.728;2024-02-21T14:06:50;9.50;99.90
70368;DHT22;57789;53.868;10.728;2024-02-21T14:09:18;9.50;99.90
70368;DHT22;57789;53.868;10.728;2024-02-21T14:11:44;9.50;99.90
70368;DHT22;57789;53.868;10.728;2024-02-21T14:14:10;9.50;99.90
70368;DHT22;57789;53.868;10.728;2024-02-21T14:16:36;9.50;99.90
70368;DHT22;57789;53.868;10.728;2024-02-21T14:19:02;9.50;99.90
70368;DHT22;57789;53.868;10.728;2024-02-21T14:21:28;9.50;99.90
70368;DHT22;57789;53.868;10.728;2024-02-21T14:23:54;9.40;99.90
70368;DHT22;57789;53.868;10.728;2024-02-21T14:26:20;9.30;99.90
70368;DHT22;57789;53.868;10.728;2024-02-21T14:28:47;9.30;99.90
70368;DHT22;57789;53.868;10.728;2024-02-21T14:31:13;9.20;99.90
70368;DHT22;57789;53.868;10.728;2024-02-21T14:33:39;9.20;99.90
70368;DHT22;57789;53.868;10.728;2024-02-21T14:36:05;9.30;99.90
70368;DHT22;57789;53.868;10.728;2024-02-21T14:38:31;9.30;99.90
70368;DHT22;57789;53.868;10.728;2024-02-21T14:40:57;9.30;99.90
70368;DHT22;57789;53.868;10.728;2024-02-21T14:43:22;9.40;99.90
70368;DHT22;57789;53.868;10.728;2024-02-21T14:45:48;9.40;99.90
70368;DHT22;57789;53.868;10.728;2024-02-21T14:48:15;9.40;99.90
70368;DHT22;57789;53.868;10.728;2024-02-21T14:50:41;9.50;99.90
70368;DHT22;57789;53.868;10.728;2024-02-21T14:53:09;9.50;99.90
70368;DHT22;57789;53.868;10.728;2024-02-21T14:55:35;9.60;99.90
70368;DHT22;57789;53.868;10.728;2024-02-21T14:58:01;9.50;99.90
70368;DHT22;57789;53.868;10.728;2024-02-21T15:00:27;9.60;99.90
70368;DHT22;57789;53.868;10.728;2024-02-21T15:02:58;9.60;99.90
70368;DHT22;57789;53.868;10.728;2024-02-21T15:05:24;9.60;99.90
70368;DHT22;57789;53.868;10.728;2024-02-21T15:07:50;9.60;99.90
70368;DHT22;57789;53.868;10.728;2024-02-21T15:10:16;9.50;99.90
70368;DHT22;57789;53.868;10.728;2024-02-21T15:12:47;9.60;99.90
70368;DHT22;57789;53.868;10.728;2024-02-21T15:15:13;9.50;99.90
70368;DHT22;57789;53.868;10.728;2024-02-21T15:17:39;9.50;99.90
70368;DHT22;57789;53.868;10.728;2024-02-21T15:20:06;9.60;99.90
70368;DHT22;57789;53.868;10.728;2024-02-21T15:22:36;9.50;99.90
70368;DHT22;57789;53.868;10.728;2024-02-21T15:25:02;9.60;99.90
70368;DHT22;57789;53.868;10.728;2024-02-21T15:27:31;9.60;99.90
70368;DHT22;57789;53.868;10.728;2024-02-21T15:29:57;9.50;99.90
70368;DHT22;57789;53.868;10.728;2024-02-21T15:32:23;9.50;99.90
70368;DHT22;57789;53.868;10.728;2024-02-21T15:34:49;9.50;99.90
70368;DHT22;57789;53.868;10.728;2024-02-21T15:37:15;9.50;99.90
70368;DHT22;57789;53.868;10.728;2024-02-21T15:39:41;9.50;99.90